Rechercher aéroport 
image banner adimage banner adimage banner ad
image banner ad

48CA - Huntington Beach Service Center

Situé à Westminster, United States

ICAO - 48CA, IATA -

Données fournies par Airmate  

Information générale

Coordonnées: N33°44'43" W118°0'1"
Élévation : 29 feet MSL.
Variation magnétique : 14° East
Voir autres Aéroports à California

Données opérationnelles

Special qualification required
Heure actuelle UTC:
Heure actuelle locale:
Météo à : KSLI - Los Alamitos Aaf ( 7 km )
METAR: KSLI 231358Z 00000KT 10SM FEW100 15/15 A2991 RMK AO2A SLP131 T01540154
TAF: TAF KSLI 231303Z 2313/2419 VRB06KT 8000 BR FEW075 QNH2985INS TX25/2322Z TN16/2413Z
Voir NOTAMs / SUP AIP / TFR affectant cet aéroport [VIEW]
Fréquences de communication: [VIEW]

Pistes:

Coordonnées de l'aéroport

Adresse: Westminster United States

Vue satellite de 48CA